Terminal Aerodrome Forecast
Issued by NWS Wilmington, OH

Current Version | Previous Version | Graphics & Text | Print | Product List | Glossary On
Versions: 1 2 3 4 5 6 7 8 9 10 11 12 13 14 15 16 17 18 19 20 21 22 23 24 25 26 27 28 29 30 31 32
252
FTUS41 KILN 152322
TAFCVG
TAF
KCVG 152322Z 1600/1706 07006KT 2SM -RA BR OVC004
     FM160300 07005KT 1SM -DZ BR OVC004
     FM161500 12006KT 2SM BR OVC008
     FM161800 14008KT 4SM BR OVC012
     FM170000 14006KT P6SM VCSH OVC015=

USA.gov is the U.S. government's official web portal to all federal, state and local government web resources and services.